Terminal Aerodrome Forecast
Issued by NWS Sterling, VA

Home | Current Version | Previous Version | Text Only | Print | Product List | Glossary On
Versions: 1 2 3 4 5 6 7 8 9 10 11 12 13 14 15 16 17 18 19 20
568
FTUS41 KLWX 281735
TAFMRB
TAF
KMRB 281735Z 2818/2918 23004KT 4SM -SHRA BR VCTS BKN015CB OVC025
     FM282100 30006KT P6SM BKN020 OVC035
     FM290600 34007KT 4SM BR BKN010 OVC025
     FM290900 34007KT P6SM BKN010 BKN025
     FM291300 35009KT P6SM FEW030 SCT140=

USA.gov is the U.S. government's official web portal to all federal, state and local government web resources and services.